createdAt,value
2023-09-06T00:02:26.824Z,98816.41
2023-09-06T00:05:28.258Z,98811.97
2023-09-06T00:08:30.017Z,98818.00
2023-09-06T00:11:35.194Z,98819.16
2023-09-06T00:14:37.950Z,98811.84
2023-09-06T00:17:45.134Z,98815.25
2023-09-06T00:20:46.793Z,98818.28
2023-09-06T00:23:48.825Z,98821.06
2023-09-06T00:26:53.366Z,98812.78
2023-09-06T00:29:54.990Z,98801.28
2023-09-06T00:32:56.940Z,98800.56
2023-09-06T00:36:02.593Z,98795.91
2023-09-06T00:39:06.990Z,98804.19
2023-09-06T00:42:16.564Z,98808.84
2023-09-06T00:45:27.836Z,98812.78
2023-09-06T00:48:44.571Z,98819.22
2023-09-06T00:51:53.516Z,98811.63
2023-09-06T00:54:55.066Z,98807.38
2023-09-06T00:58:10.757Z,98807.41
2023-09-06T01:01:13.303Z,98812.56
2023-09-06T01:04:16.665Z,98811.06
2023-09-06T01:07:18.628Z,98815.03
2023-09-06T01:10:20.562Z,98807.84
2023-09-06T01:13:25.637Z,98808.50
2023-09-06T01:16:29.672Z,98807.94
2023-09-06T01:19:38.648Z,98801.88
2023-09-06T01:22:43.384Z,98807.06
2023-09-06T01:25:53.517Z,98803.06
2023-09-06T01:28:57.910Z,98799.78
2023-09-06T01:32:05.777Z,98799.81
2023-09-06T01:35:14.305Z,98792.72
2023-09-06T01:38:24.886Z,98798.75
2023-09-06T01:41:26.682Z,98802.03
2023-09-06T01:44:33.345Z,98789.88
2023-09-06T01:47:39.361Z,98802.53
2023-09-06T01:50:47.137Z,98800.06
2023-09-06T01:53:52.112Z,98800.06
2023-09-06T01:57:10.769Z,98805.38
2023-09-06T02:00:24.532Z,98795.75
2023-09-06T02:03:29.306Z,98799.13
2023-09-06T02:06:39.679Z,98797.59
2023-09-06T02:09:44.151Z,98802.31
2023-09-06T02:12:54.317Z,98791.03
2023-09-06T02:16:08.155Z,98791.66
2023-09-06T02:19:13.009Z,98789.34
2023-09-06T02:22:17.734Z,98788.81
2023-09-06T02:25:25.077Z,98793.81
2023-09-06T02:28:36.570Z,98796.41
2023-09-06T02:31:40.467Z,98804.38
2023-09-06T02:34:51.115Z,98794.81
2023-09-06T02:37:59.385Z,98795.88
2023-09-06T02:41:06.241Z,98795.00
2023-09-06T02:47:31.054Z,98790.00
2023-09-06T02:50:46.129Z,98794.31
2023-09-06T02:53:48.079Z,98796.69
2023-09-06T02:56:55.349Z,98798.47
2023-09-06T02:59:58.024Z,98803.66
2023-09-06T03:03:15.418Z,98796.13
2023-09-06T03:06:40.104Z,98799.28
2023-09-06T03:09:46.381Z,98800.63
2023-09-06T03:12:59.511Z,98792.78
2023-09-06T03:16:06.562Z,98797.09
2023-09-06T03:19:16.845Z,98801.59
2023-09-06T03:22:22.501Z,98795.44
2023-09-06T03:25:23.951Z,98800.72
2023-09-06T03:28:30.375Z,98799.88
2023-09-06T03:35:11.341Z,98807.19
2023-09-06T03:38:16.934Z,98813.28
2023-09-06T03:41:21.979Z,98810.66
2023-09-06T03:44:28.069Z,98818.50
2023-09-06T03:47:33.185Z,98818.50
2023-09-06T03:50:40.805Z,98828.88
2023-09-06T03:53:44.052Z,98831.47
2023-09-06T03:56:45.455Z,98825.88
2023-09-06T03:59:47.469Z,98817.53
2023-09-06T04:02:49.432Z,98825.03
2023-09-06T04:05:52.198Z,98823.28
2023-09-06T04:08:54.741Z,98824.28
2023-09-06T04:11:58.906Z,98822.50
2023-09-06T04:15:00.641Z,98821.66
2023-09-06T04:18:02.577Z,98819.19
2023-09-06T04:21:09.697Z,98816.59
2023-09-06T04:24:11.172Z,98820.03
2023-09-06T04:27:13.490Z,98827.13
2023-09-06T04:30:18.802Z,98829.94
2023-09-06T04:33:20.258Z,98820.25
2023-09-06T04:36:22.795Z,98823.66
2023-09-06T04:39:26.352Z,98831.72
2023-09-06T04:42:27.806Z,98836.97
2023-09-06T04:45:29.338Z,98831.78
2023-09-06T04:48:31.158Z,98839.59
2023-09-06T04:51:32.866Z,98840.56
2023-09-06T04:54:34.307Z,98838.88
2023-09-06T04:57:37.989Z,98843.28
2023-09-06T05:00:42.586Z,98841.56
2023-09-06T05:03:44.184Z,98857.84
2023-09-06T05:06:46.035Z,98847.66
2023-09-06T05:09:47.713Z,98848.44
2023-09-06T05:12:49.143Z,98853.75
2023-09-06T05:15:50.574Z,98850.38
2023-09-06T05:18:52.066Z,98855.66
2023-09-06T05:21:53.506Z,98852.19
2023-09-06T05:24:54.987Z,98848.41
2023-09-06T05:28:00.765Z,98852.75
2023-09-06T05:31:02.384Z,98862.56
2023-09-06T05:34:03.884Z,98858.22
2023-09-06T05:37:05.289Z,98845.97
2023-09-06T05:40:07.656Z,98842.25
2023-09-06T05:43:09.526Z,98857.81
2023-09-06T05:46:29.658Z,98868.06
2023-09-06T05:49:32.375Z,98864.44
2023-09-06T05:52:34.029Z,98876.59
2023-09-06T05:55:35.557Z,98879.03
2023-09-06T05:58:39.204Z,98880.66
2023-09-06T06:01:41.311Z,98886.00
2023-09-06T06:04:43.003Z,98876.56
2023-09-06T06:07:44.403Z,98876.50
2023-09-06T06:10:46.089Z,98874.63
2023-09-06T06:13:56.297Z,98871.13
2023-09-06T06:17:02.318Z,98880.25
2023-09-06T06:20:12.293Z,98882.69
2023-09-06T06:23:13.974Z,98882.69
2023-09-06T06:26:20.635Z,98887.72
2023-09-06T06:29:22.326Z,98878.72
2023-09-06T06:32:23.773Z,98891.69
2023-09-06T06:35:25.819Z,98887.97
2023-09-06T06:38:27.660Z,98886.09
2023-09-06T06:41:32.138Z,98885.16
2023-09-06T06:44:33.706Z,98882.38
2023-09-06T06:47:35.489Z,98885.28
2023-09-06T06:50:37.311Z,98878.88
2023-09-06T06:53:38.930Z,98876.44
2023-09-06T06:56:40.314Z,98886.19
2023-09-06T06:59:41.978Z,98885.53
2023-09-06T07:02:43.390Z,98879.75
2023-09-06T07:05:44.809Z,98882.81
2023-09-06T07:08:46.929Z,98881.53
2023-09-06T07:11:48.999Z,98878.75
2023-09-06T07:14:52.252Z,98881.84
2023-09-06T07:17:53.731Z,98883.19
2023-09-06T07:20:55.198Z,98881.91
2023-09-06T07:23:56.623Z,98885.13
2023-09-06T07:26:58.026Z,98883.84
2023-09-06T07:29:59.757Z,98875.63
2023-09-06T07:33:01.270Z,98882.00
2023-09-06T07:36:02.826Z,98885.84
2023-09-06T07:39:05.024Z,98885.19
2023-09-06T07:42:09.250Z,98887.06
2023-09-06T07:45:11.510Z,98890.63
2023-09-06T07:48:13.090Z,98888.06
2023-09-06T07:51:14.648Z,98897.25
2023-09-06T07:54:16.079Z,98896.06
2023-09-06T07:57:17.697Z,98891.97
2023-09-06T08:00:19.334Z,98891.16
2023-09-06T08:03:20.837Z,98895.59
2023-09-06T08:06:22.366Z,98886.03
2023-09-06T08:09:24.403Z,98887.47
2023-09-06T08:12:26.470Z,98886.13
2023-09-06T08:15:28.660Z,98891.28
2023-09-06T08:18:30.790Z,98896.78
2023-09-06T08:21:32.554Z,98896.31
2023-09-06T08:24:34.284Z,98909.56
2023-09-06T08:27:35.770Z,98905.22
2023-09-06T08:30:37.306Z,98904.38
2023-09-06T08:33:40.680Z,98910.41
2023-09-06T08:36:42.371Z,98907.94
2023-09-06T08:39:45.057Z,98910.78
2023-09-06T08:42:46.742Z,98910.66
2023-09-06T08:45:48.679Z,98928.72
2023-09-06T08:48:50.754Z,98920.34
2023-09-06T08:51:52.433Z,98928.06
2023-09-06T08:54:54.025Z,98922.84
2023-09-06T08:57:57.926Z,98920.34
2023-09-06T09:00:59.510Z,98930.69
2023-09-06T09:04:01.222Z,98924.00
2023-09-06T09:07:05.988Z,98922.31
2023-09-06T09:10:11.037Z,98931.13
2023-09-06T09:13:16.701Z,98932.13
2023-09-06T09:16:18.330Z,98923.38
2023-09-06T09:19:20.921Z,98925.00
2023-09-06T09:22:29.900Z,98925.19
2023-09-06T09:25:31.554Z,98925.97
2023-09-06T09:28:36.318Z,98925.88
2023-09-06T09:31:41.606Z,98924.69
2023-09-06T09:34:43.042Z,98929.47
2023-09-06T09:37:53.072Z,98937.31
2023-09-06T09:41:07.479Z,98928.19
2023-09-06T09:44:15.555Z,98927.66
2023-09-06T09:47:43.385Z,98923.78
2023-09-06T09:50:39.822Z,98921.81
2023-09-06T09:53:42.708Z,98920.25
2023-09-06T09:56:45.849Z,98919.59
2023-09-06T09:59:47.466Z,98915.69
2023-09-06T10:02:49.101Z,98915.38
2023-09-06T10:05:51.158Z,98914.19
2023-09-06T10:08:52.936Z,98921.41
2023-09-06T10:11:55.167Z,98919.66
2023-09-06T10:14:57.387Z,98916.03
2023-09-06T10:17:59.947Z,98915.06
2023-09-06T10:21:03.847Z,98916.16
2023-09-06T10:24:08.529Z,98925.25
2023-09-06T10:27:14.183Z,98922.03
2023-09-06T10:30:18.957Z,98914.34
2023-09-06T10:33:38.791Z,98916.78
2023-09-06T10:36:58.229Z,98913.91
2023-09-06T10:40:00.682Z,98907.22
2023-09-06T10:43:02.157Z,98898.69
2023-09-06T10:46:06.786Z,98900.22
2023-09-06T10:49:22.484Z,98895.78
2023-09-06T10:52:38.750Z,98898.69
2023-09-06T10:55:47.549Z,98889.25
2023-09-06T10:58:49.165Z,98892.28
2023-09-06T11:02:09.546Z,98890.75
2023-09-06T11:05:12.661Z,98891.41
2023-09-06T11:08:28.042Z,98892.53
2023-09-06T11:11:30.111Z,98886.22
2023-09-06T11:14:31.573Z,98885.81
2023-09-06T11:17:33.164Z,98884.66
2023-09-06T11:20:34.750Z,98887.94
2023-09-06T11:23:45.962Z,98883.69
2023-09-06T11:26:47.435Z,98879.78
2023-09-06T11:29:59.001Z,98884.81
2023-09-06T11:33:00.648Z,98873.72
2023-09-06T11:36:04.476Z,98871.72
2023-09-06T11:39:19.792Z,98872.06
2023-09-06T11:42:24.096Z,98862.81
2023-09-06T11:45:26.888Z,98867.97
2023-09-06T11:48:31.587Z,98859.41
2023-09-06T11:51:33.801Z,98864.28
2023-09-06T11:54:39.101Z,98858.38
2023-09-06T11:57:42.971Z,98861.41
2023-09-06T12:00:47.921Z,98864.28
2023-09-06T12:03:49.646Z,98857.13
2023-09-06T12:06:53.346Z,98848.00
2023-09-06T12:09:57.150Z,98850.41
2023-09-06T12:12:58.985Z,98847.44
2023-09-06T12:16:00.613Z,98839.50
2023-09-06T12:19:04.918Z,98845.91
2023-09-06T12:22:06.799Z,98843.88
2023-09-06T12:25:08.420Z,98831.19
2023-09-06T12:28:10.363Z,98832.91
2023-09-06T12:31:17.608Z,98830.84
2023-09-06T12:34:19.680Z,98832.78
2023-09-06T12:37:21.185Z,98833.41
2023-09-06T12:40:29.089Z,98827.78
2023-09-06T12:43:35.669Z,98821.38
2023-09-06T12:46:37.968Z,98818.34
2023-09-06T12:49:39.501Z,98828.25
2023-09-06T12:52:42.213Z,98825.44
2023-09-06T12:55:44.549Z,98822.72
2023-09-06T12:58:46.001Z,98816.84
2023-09-06T13:01:47.548Z,98816.03
2023-09-06T13:04:49.294Z,98818.81
2023-09-06T13:07:51.020Z,98804.34
2023-09-06T13:10:52.617Z,98802.09
2023-09-06T13:13:57.605Z,98805.94
2023-09-06T13:17:00.117Z,98800.84
2023-09-06T13:20:02.980Z,98795.50
2023-09-06T13:23:04.492Z,98797.31
2023-09-06T13:26:06.292Z,98792.50
2023-09-06T13:29:08.153Z,98796.00
2023-09-06T13:32:09.757Z,98794.78
2023-09-06T13:35:12.774Z,98790.09
2023-09-06T13:38:14.580Z,98787.38
2023-09-06T13:44:32.438Z,98788.25
2023-09-06T13:47:34.156Z,98789.38
2023-09-06T13:50:38.643Z,98796.78
2023-09-06T13:53:43.141Z,98784.97
2023-09-06T13:56:46.088Z,98783.06
2023-09-06T13:59:47.561Z,98785.47
2023-09-06T14:02:49.351Z,98783.63
2023-09-06T14:05:51.069Z,98787.09
2023-09-06T14:08:52.629Z,98777.38
2023-09-06T14:11:56.321Z,98773.03
2023-09-06T14:14:58.138Z,98769.13
2023-09-06T14:17:59.941Z,98770.50
2023-09-06T14:21:01.555Z,98770.66
2023-09-06T14:24:03.004Z,98765.03
2023-09-06T14:27:05.080Z,98764.19
2023-09-06T14:30:06.884Z,98766.25
2023-09-06T14:33:11.547Z,98754.63
2023-09-06T14:36:13.018Z,98747.34
2023-09-06T14:39:15.421Z,98753.56
2023-09-06T14:42:16.916Z,98750.34
2023-09-06T14:45:18.592Z,98744.72
2023-09-06T14:48:20.109Z,98729.94
2023-09-06T14:51:21.587Z,98732.63
2023-09-06T14:54:25.769Z,98732.84
2023-09-06T14:57:27.912Z,98724.53
2023-09-06T15:00:29.367Z,98728.38
2023-09-06T15:03:30.960Z,98723.34
2023-09-06T15:06:47.212Z,98726.56
2023-09-06T15:09:54.210Z,98727.50
2023-09-06T15:12:57.025Z,98723.38
2023-09-06T15:15:58.585Z,98723.69
2023-09-06T15:19:00.277Z,98718.44
2023-09-06T15:22:01.887Z,98726.75
2023-09-06T15:25:03.417Z,98720.25
2023-09-06T15:28:04.904Z,98725.88
2023-09-06T15:31:06.458Z,98716.47
2023-09-06T15:34:07.964Z,98712.56
2023-09-06T15:37:10.121Z,98711.47
2023-09-06T15:40:11.707Z,98716.59
2023-09-06T15:43:13.777Z,98718.91
2023-09-06T15:46:15.336Z,98716.69
2023-09-06T15:49:17.561Z,98716.22
2023-09-06T15:52:19.883Z,98718.28
2023-09-06T15:55:21.414Z,98722.97
2023-09-06T15:58:22.861Z,98720.94
2023-09-06T16:01:24.670Z,98718.00
2023-09-06T16:04:26.235Z,98720.81
2023-09-06T16:07:27.906Z,98723.06
2023-09-06T16:10:29.429Z,98720.66
2023-09-06T16:13:30.862Z,98712.97
2023-09-06T16:16:32.547Z,98723.28
2023-09-06T16:19:34.008Z,98711.53
2023-09-06T16:22:35.492Z,98712.91
2023-09-06T16:25:36.919Z,98716.22
2023-09-06T16:28:41.528Z,98711.31
2023-09-06T16:31:43.056Z,98721.63
2023-09-06T16:34:45.171Z,98720.16
2023-09-06T16:37:54.080Z,98726.00
2023-09-06T16:40:58.502Z,98717.28
2023-09-06T16:44:00.013Z,98715.50
2023-09-06T16:47:01.652Z,98715.31
2023-09-06T16:50:04.050Z,98715.78
2023-09-06T16:53:07.431Z,98717.09
2023-09-06T16:56:09.263Z,98717.97
2023-09-06T16:59:12.075Z,98716.66
2023-09-06T17:02:13.675Z,98718.28
2023-09-06T17:05:15.302Z,98724.72
2023-09-06T17:08:19.827Z,98722.59
2023-09-06T17:11:22.815Z,98726.75
2023-09-06T17:14:24.885Z,98731.91
2023-09-06T17:17:26.956Z,98721.59
2023-09-06T17:20:38.454Z,98714.53
2023-09-06T17:23:56.970Z,98721.66
2023-09-06T17:27:05.803Z,98726.63
2023-09-06T17:30:12.808Z,98728.34
2023-09-06T17:33:15.461Z,98724.22
2023-09-06T17:36:17.092Z,98728.56
2023-09-06T17:39:18.585Z,98732.69
2023-09-06T17:42:23.896Z,98726.34
2023-09-06T17:45:34.889Z,98729.34
2023-09-06T17:48:39.851Z,98731.53
2023-09-06T17:51:42.656Z,98739.19
2023-09-06T17:54:44.497Z,98733.25
2023-09-06T17:57:48.683Z,98743.44
2023-09-06T18:00:50.609Z,98739.22
2023-09-06T18:03:52.838Z,98744.75
2023-09-06T18:06:55.172Z,98742.69
2023-09-06T18:09:58.611Z,98737.16
2023-09-06T18:13:06.409Z,98745.78
2023-09-06T18:16:12.834Z,98752.16
2023-09-06T18:19:14.327Z,98748.47
2023-09-06T18:22:16.006Z,98751.72
2023-09-06T18:25:17.600Z,98750.34
2023-09-06T18:28:18.983Z,98758.13
2023-09-06T18:31:21.166Z,98751.81
2023-09-06T18:34:22.705Z,98751.06
2023-09-06T18:37:24.261Z,98744.50
2023-09-06T18:40:25.886Z,98748.44
2023-09-06T18:43:28.499Z,98753.81
2023-09-06T18:46:30.446Z,98759.50
2023-09-06T18:49:36.471Z,98764.09
2023-09-06T18:52:38.632Z,98768.28
2023-09-06T18:55:40.171Z,98767.50
2023-09-06T18:58:41.854Z,98765.03
2023-09-06T19:01:43.321Z,98758.69
2023-09-06T19:04:44.823Z,98771.19
2023-09-06T19:07:48.030Z,98765.66
2023-09-06T19:10:49.750Z,98768.69
2023-09-06T19:13:52.242Z,98774.13
2023-09-06T19:16:53.780Z,98777.75
2023-09-06T19:19:55.238Z,98775.63
2023-09-06T19:22:56.958Z,98769.03
2023-09-06T19:25:59.138Z,98775.25
2023-09-06T19:29:00.606Z,98780.28
2023-09-06T19:32:04.653Z,98785.16
2023-09-06T19:35:07.481Z,98784.66
2023-09-06T19:38:09.270Z,98782.78
2023-09-06T19:41:10.761Z,98788.38
2023-09-06T19:44:12.249Z,98785.56
2023-09-06T19:47:18.400Z,98784.88
2023-09-06T19:50:19.885Z,98791.16
2023-09-06T19:53:21.449Z,98788.16
2023-09-06T19:56:24.064Z,98788.41
2023-09-06T19:59:25.487Z,98784.22
2023-09-06T20:02:27.182Z,98779.03
2023-09-06T20:05:28.979Z,98793.06
2023-09-06T20:08:30.839Z,98795.66
2023-09-06T20:11:32.606Z,98796.53
2023-09-06T20:14:34.100Z,98794.66
2023-09-06T20:17:36.002Z,98794.75
2023-09-06T20:20:37.774Z,98791.81
2023-09-06T20:23:39.376Z,98793.59
2023-09-06T20:26:40.924Z,98789.84
2023-09-06T20:29:44.487Z,98794.16
2023-09-06T20:32:46.158Z,98802.69
2023-09-06T20:35:47.719Z,98801.88
2023-09-06T20:38:49.295Z,98803.00
2023-09-06T20:41:50.904Z,98801.81
2023-09-06T20:44:52.421Z,98809.81
2023-09-06T20:47:53.921Z,98810.69
2023-09-06T20:51:01.467Z,98804.44
2023-09-06T20:54:03.175Z,98807.13
2023-09-06T20:57:04.738Z,98813.00
2023-09-06T21:00:07.525Z,98804.06
2023-09-06T21:03:09.159Z,98809.63
2023-09-06T21:06:10.906Z,98807.56
2023-09-06T21:09:12.373Z,98806.78
2023-09-06T21:12:13.870Z,98801.25
2023-09-06T21:15:15.378Z,98800.00
2023-09-06T21:18:17.122Z,98801.22
2023-09-06T21:21:18.820Z,98797.25
2023-09-06T21:24:20.245Z,98790.88
2023-09-06T21:27:21.680Z,98807.69
2023-09-06T21:30:23.342Z,98801.25
2023-09-06T21:33:24.950Z,98800.00
2023-09-06T21:36:26.643Z,98804.66
2023-09-06T21:39:28.206Z,98802.31
2023-09-06T21:42:29.896Z,98801.94
2023-09-06T21:45:31.984Z,98803.84
2023-09-06T21:48:33.863Z,98789.66
2023-09-06T21:51:35.646Z,98792.41
2023-09-06T21:54:37.831Z,98792.75
2023-09-06T21:57:39.318Z,98790.31
2023-09-06T22:00:40.906Z,98783.78
2023-09-06T22:03:45.318Z,98782.19
2023-09-06T22:06:46.906Z,98781.88
2023-09-06T22:09:51.002Z,98787.03
2023-09-06T22:12:52.636Z,98777.34
2023-09-06T22:15:54.862Z,98784.56
2023-09-06T22:18:56.703Z,98784.28
2023-09-06T22:21:58.427Z,98793.53
2023-09-06T22:25:00.053Z,98796.75
2023-09-06T22:28:08.450Z,98800.56
2023-09-06T22:31:10.043Z,98797.91
2023-09-06T22:34:11.574Z,98797.72
2023-09-06T22:37:13.096Z,98790.34
2023-09-06T22:40:14.582Z,98785.81
2023-09-06T22:43:16.132Z,98798.78
2023-09-06T22:46:17.732Z,98790.69
2023-09-06T22:49:19.264Z,98789.97
2023-09-06T22:52:23.210Z,98792.16
2023-09-06T22:55:24.862Z,98800.22
2023-09-06T22:58:26.346Z,98801.09
2023-09-06T23:01:28.076Z,98796.78
2023-09-06T23:04:37.092Z,98804.81
2023-09-06T23:07:38.781Z,98803.97
2023-09-06T23:10:40.598Z,98802.59
2023-09-06T23:13:42.095Z,98800.22
2023-09-06T23:16:43.643Z,98807.13
2023-09-06T23:19:45.396Z,98801.19
2023-09-06T23:22:48.959Z,98800.38
2023-09-06T23:25:53.319Z,98790.03
2023-09-06T23:28:56.817Z,98787.41
2023-09-06T23:32:00.219Z,98781.66
2023-09-06T23:35:04.557Z,98765.97
2023-09-06T23:38:08.451Z,98765.19
2023-09-06T23:41:12.754Z,98771.66
2023-09-06T23:44:14.200Z,98762.72
2023-09-06T23:47:19.470Z,98763.28
2023-09-06T23:50:21.564Z,98759.47
2023-09-06T23:53:26.175Z,98754.22
2023-09-06T23:56:27.645Z,98755.22
2023-09-06T23:59:29.090Z,98771.72
